sensor_id;sensor_type;location;lat;lon;timestamp;P1;durP1;ratioP1;P2;durP2;ratioP2
67965;SDS011;54749;47.850;9.002;2022-10-15T00:00:40;9.13;;;4.75;;
67965;SDS011;54749;47.850;9.002;2022-10-15T00:03:26;150.23;;;60.15;;
67965;SDS011;54749;47.850;9.002;2022-10-15T00:05:53;146.27;;;48.97;;
67965;SDS011;54749;47.850;9.002;2022-10-15T00:08:19;26.67;;;11.67;;
67965;SDS011;54749;47.850;9.002;2022-10-15T00:10:46;80.60;;;34.92;;
67965;SDS011;54749;47.850;9.002;2022-10-15T00:13:13;245.13;;;109.38;;
67965;SDS011;54749;47.850;9.002;2022-10-15T00:15:39;39.95;;;18.63;;
67965;SDS011;54749;47.850;9.002;2022-10-15T00:18:06;107.25;;;46.53;;
67965;SDS011;54749;47.850;9.002;2022-10-15T00:20:33;47.13;;;22.63;;
67965;SDS011;54749;47.850;9.002;2022-10-15T00:23:00;43.55;;;21.70;;
67965;SDS011;54749;47.850;9.002;2022-10-15T00:25:26;15.00;;;7.82;;
67965;SDS011;54749;47.850;9.002;2022-10-15T00:27:53;15.30;;;6.38;;
67965;SDS011;54749;47.850;9.002;2022-10-15T00:30:20;12.98;;;6.97;;
67965;SDS011;54749;47.850;9.002;2022-10-15T00:32:47;13.00;;;5.90;;
67965;SDS011;54749;47.850;9.002;2022-10-15T00:35:14;41.45;;;18.55;;
67965;SDS011;54749;47.850;9.002;2022-10-15T00:37:40;25.58;;;13.43;;
67965;SDS011;54749;47.850;9.002;2022-10-15T00:40:10;61.03;;;32.70;;
67965;SDS011;54749;47.850;9.002;2022-10-15T00:42:37;31.38;;;16.52;;
67965;SDS011;54749;47.850;9.002;2022-10-15T00:45:04;25.73;;;14.83;;
67965;SDS011;54749;47.850;9.002;2022-10-15T00:47:34;62.28;;;29.05;;
67965;SDS011;54749;47.850;9.002;2022-10-15T00:50:12;107.95;;;45.00;;
67965;SDS011;54749;47.850;9.002;2022-10-15T00:52:53;36.70;;;17.92;;
67965;SDS011;54749;47.850;9.002;2022-10-15T00:57:54;12.37;;;5.97;;
67965;SDS011;54749;47.850;9.002;2022-10-15T01:00:25;20.20;;;9.52;;
67965;SDS011;54749;47.850;9.002;2022-10-15T01:02:55;11.13;;;5.38;;
67965;SDS011;54749;47.850;9.002;2022-10-15T01:05:22;9.88;;;3.83;;
67965;SDS011;54749;47.850;9.002;2022-10-15T01:07:49;8.40;;;3.30;;
67965;SDS011;54749;47.850;9.002;2022-10-15T01:10:17;9.00;;;4.20;;
67965;SDS011;54749;47.850;9.002;2022-10-15T01:13:04;8.25;;;3.80;;
67965;SDS011;54749;47.850;9.002;2022-10-15T01:18:45;20.98;;;9.95;;
67965;SDS011;54749;47.850;9.002;2022-10-15T01:21:37;38.20;;;18.75;;
67965;SDS011;54749;47.850;9.002;2022-10-15T01:24:22;23.50;;;11.73;;
67965;SDS011;54749;47.850;9.002;2022-10-15T01:32:02;35.70;;;17.17;;
67965;SDS011;54749;47.850;9.002;2022-10-15T01:34:39;47.70;;;18.40;;
67965;SDS011;54749;47.850;9.002;2022-10-15T01:43:21;23.83;;;10.30;;
67965;SDS011;54749;47.850;9.002;2022-10-15T01:45:59;43.85;;;18.08;;
67965;SDS011;54749;47.850;9.002;2022-10-15T01:48:52;64.55;;;28.35;;
67965;SDS011;54749;47.850;9.002;2022-10-15T01:51:22;22.13;;;10.67;;
67965;SDS011;54749;47.850;9.002;2022-10-15T01:53:55;26.15;;;11.52;;
67965;SDS011;54749;47.850;9.002;2022-10-15T01:56:25;50.10;;;21.52;;
67965;SDS011;54749;47.850;9.002;2022-10-15T01:58:53;134.10;;;52.63;;
67965;SDS011;54749;47.850;9.002;2022-10-15T02:01:21;34.03;;;15.77;;
67965;SDS011;54749;47.850;9.002;2022-10-15T02:03:49;13.83;;;6.80;;
67965;SDS011;54749;47.850;9.002;2022-10-15T02:06:40;22.98;;;11.73;;
67965;SDS011;54749;47.850;9.002;2022-10-15T02:09:32;37.45;;;17.63;;
67965;SDS011;54749;47.850;9.002;2022-10-15T02:12:02;12.60;;;6.38;;
67965;SDS011;54749;47.850;9.002;2022-10-15T02:14:47;10.32;;;4.47;;
67965;SDS011;54749;47.850;9.002;2022-10-15T02:17:35;12.00;;;3.50;;
67965;SDS011;54749;47.850;9.002;2022-10-15T02:23:21;12.75;;;4.95;;
67965;SDS011;54749;47.850;9.002;2022-10-15T02:25:57;9.68;;;3.58;;
67965;SDS011;54749;47.850;9.002;2022-10-15T02:28:25;7.40;;;3.90;;
67965;SDS011;54749;47.850;9.002;2022-10-15T02:30:54;12.90;;;6.80;;
67965;SDS011;54749;47.850;9.002;2022-10-15T02:33:24;8.20;;;4.05;;
67965;SDS011;54749;47.850;9.002;2022-10-15T02:35:52;6.13;;;2.90;;
67965;SDS011;54749;47.850;9.002;2022-10-15T02:38:22;6.72;;;2.20;;
67965;SDS011;54749;47.850;9.002;2022-10-15T02:40:50;9.85;;;3.75;;
67965;SDS011;54749;47.850;9.002;2022-10-15T02:43:19;11.23;;;4.00;;
67965;SDS011;54749;47.850;9.002;2022-10-15T02:45:48;7.10;;;2.83;;
67965;SDS011;54749;47.850;9.002;2022-10-15T02:48:16;5.57;;;2.17;;
67965;SDS011;54749;47.850;9.002;2022-10-15T02:50:45;9.88;;;3.42;;
67965;SDS011;54749;47.850;9.002;2022-10-15T02:53:12;7.28;;;2.50;;
67965;SDS011;54749;47.850;9.002;2022-10-15T02:55:41;7.67;;;2.50;;
67965;SDS011;54749;47.850;9.002;2022-10-15T02:58:08;4.95;;;1.35;;
67965;SDS011;54749;47.850;9.002;2022-10-15T03:00:35;11.80;;;3.80;;
67965;SDS011;54749;47.850;9.002;2022-10-15T03:03:02;8.73;;;3.08;;
67965;SDS011;54749;47.850;9.002;2022-10-15T03:05:29;14.63;;;3.80;;
67965;SDS011;54749;47.850;9.002;2022-10-15T03:07:58;11.80;;;4.40;;
67965;SDS011;54749;47.850;9.002;2022-10-15T03:10:26;10.32;;;3.28;;
67965;SDS011;54749;47.850;9.002;2022-10-15T03:12:53;11.55;;;3.60;;
67965;SDS011;54749;47.850;9.002;2022-10-15T03:15:20;13.25;;;4.20;;
67965;SDS011;54749;47.850;9.002;2022-10-15T03:17:47;11.15;;;3.78;;
67965;SDS011;54749;47.850;9.002;2022-10-15T03:20:16;9.03;;;3.20;;
67965;SDS011;54749;47.850;9.002;2022-10-15T03:22:42;15.85;;;3.60;;
67965;SDS011;54749;47.850;9.002;2022-10-15T03:25:09;15.82;;;4.90;;
67965;SDS011;54749;47.850;9.002;2022-10-15T03:27:36;11.05;;;3.30;;
67965;SDS011;54749;47.850;9.002;2022-10-15T03:30:11;18.38;;;5.85;;
67965;SDS011;54749;47.850;9.002;2022-10-15T03:32:40;11.80;;;3.83;;
67965;SDS011;54749;47.850;9.002;2022-10-15T03:35:12;10.20;;;4.32;;
67965;SDS011;54749;47.850;9.002;2022-10-15T03:37:39;8.90;;;2.95;;
67965;SDS011;54749;47.850;9.002;2022-10-15T03:40:08;9.25;;;3.17;;
67965;SDS011;54749;47.850;9.002;2022-10-15T03:42:39;8.18;;;2.88;;
67965;SDS011;54749;47.850;9.002;2022-10-15T03:45:08;8.20;;;2.50;;
67965;SDS011;54749;47.850;9.002;2022-10-15T03:47:35;10.82;;;3.13;;
67965;SDS011;54749;47.850;9.002;2022-10-15T03:50:02;11.25;;;3.30;;
67965;SDS011;54749;47.850;9.002;2022-10-15T03:52:29;10.30;;;3.10;;
67965;SDS011;54749;47.850;9.002;2022-10-15T03:54:57;9.27;;;3.70;;
67965;SDS011;54749;47.850;9.002;2022-10-15T03:57:24;15.43;;;3.50;;
67965;SDS011;54749;47.850;9.002;2022-10-15T03:59:56;10.63;;;4.30;;
67965;SDS011;54749;47.850;9.002;2022-10-15T04:02:26;24.48;;;10.30;;
67965;SDS011;54749;47.850;9.002;2022-10-15T04:04:55;21.52;;;10.07;;
67965;SDS011;54749;47.850;9.002;2022-10-15T04:07:22;29.40;;;13.02;;
67965;SDS011;54749;47.850;9.002;2022-10-15T04:09:49;13.03;;;5.97;;
67965;SDS011;54749;47.850;9.002;2022-10-15T04:12:23;24.63;;;12.07;;
67965;SDS011;54749;47.850;9.002;2022-10-15T04:14:51;13.15;;;5.43;;
67965;SDS011;54749;47.850;9.002;2022-10-15T04:17:18;7.30;;;2.58;;
67965;SDS011;54749;47.850;9.002;2022-10-15T04:19:45;7.72;;;2.30;;
67965;SDS011;54749;47.850;9.002;2022-10-15T04:22:13;8.63;;;3.53;;
67965;SDS011;54749;47.850;9.002;2022-10-15T04:24:45;9.02;;;2.90;;
67965;SDS011;54749;47.850;9.002;2022-10-15T04:27:23;7.82;;;3.17;;
67965;SDS011;54749;47.850;9.002;2022-10-15T04:29:50;7.90;;;2.88;;
67965;SDS011;54749;47.850;9.002;2022-10-15T04:32:17;8.50;;;2.60;;
67965;SDS011;54749;47.850;9.002;2022-10-15T04:34:45;14.97;;;5.73;;
67965;SDS011;54749;47.850;9.002;2022-10-15T04:37:14;9.65;;;3.50;;
67965;SDS011;54749;47.850;9.002;2022-10-15T04:39:41;7.18;;;2.30;;
67965;SDS011;54749;47.850;9.002;2022-10-15T04:42:11;4.78;;;2.00;;
67965;SDS011;54749;47.850;9.002;2022-10-15T04:44:38;20.25;;;10.18;;
67965;SDS011;54749;47.850;9.002;2022-10-15T04:47:06;17.03;;;9.00;;
67965;SDS011;54749;47.850;9.002;2022-10-15T04:49:32;9.35;;;3.63;;
67965;SDS011;54749;47.850;9.002;2022-10-15T04:52:05;9.20;;;4.45;;
67965;SDS011;54749;47.850;9.002;2022-10-15T04:54:51;11.77;;;5.35;;
67965;SDS011;54749;47.850;9.002;2022-10-15T04:57:17;17.10;;;8.50;;
67965;SDS011;54749;47.850;9.002;2022-10-15T04:59:45;22.73;;;10.50;;
67965;SDS011;54749;47.850;9.002;2022-10-15T05:02:30;13.25;;;6.47;;
67965;SDS011;54749;47.850;9.002;2022-10-15T05:05:19;24.60;;;11.90;;
67965;SDS011;54749;47.850;9.002;2022-10-15T05:07:57;14.27;;;6.85;;
67965;SDS011;54749;47.850;9.002;2022-10-15T05:10:25;10.43;;;5.13;;
67965;SDS011;54749;47.850;9.002;2022-10-15T05:12:52;21.70;;;10.63;;
67965;SDS011;54749;47.850;9.002;2022-10-15T05:15:28;22.80;;;12.45;;
67965;SDS011;54749;47.850;9.002;2022-10-15T05:17:55;31.15;;;15.05;;
67965;SDS011;54749;47.850;9.002;2022-10-15T05:20:28;39.70;;;20.73;;
67965;SDS011;54749;47.850;9.002;2022-10-15T05:22:55;22.75;;;13.90;;
67965;SDS011;54749;47.850;9.002;2022-10-15T05:25:26;40.27;;;20.93;;
67965;SDS011;54749;47.850;9.002;2022-10-15T05:27:54;30.95;;;14.20;;
67965;SDS011;54749;47.850;9.002;2022-10-15T05:30:21;20.75;;;10.30;;
67965;SDS011;54749;47.850;9.002;2022-10-15T05:32:51;18.42;;;8.75;;
67965;SDS011;54749;47.850;9.002;2022-10-15T05:35:19;28.77;;;13.30;;
67965;SDS011;54749;47.850;9.002;2022-10-15T05:38:13;28.67;;;13.93;;
67965;SDS011;54749;47.850;9.002;2022-10-15T05:40:40;36.85;;;19.60;;
67965;SDS011;54749;47.850;9.002;2022-10-15T05:43:14;18.13;;;9.10;;
67965;SDS011;54749;47.850;9.002;2022-10-15T05:45:41;14.80;;;5.10;;
67965;SDS011;54749;47.850;9.002;2022-10-15T05:48:08;24.05;;;12.95;;
67965;SDS011;54749;47.850;9.002;2022-10-15T05:50:35;41.50;;;21.40;;
67965;SDS011;54749;47.850;9.002;2022-10-15T05:53:05;16.70;;;6.97;;
67965;SDS011;54749;47.850;9.002;2022-10-15T05:55:37;10.02;;;4.45;;
67965;SDS011;54749;47.850;9.002;2022-10-15T05:58:04;14.38;;;6.68;;
67965;SDS011;54749;47.850;9.002;2022-10-15T06:00:31;39.78;;;21.08;;
67965;SDS011;54749;47.850;9.002;2022-10-15T06:02:58;25.50;;;12.50;;
67965;SDS011;54749;47.850;9.002;2022-10-15T06:05:25;87.32;;;42.30;;
67965;SDS011;54749;47.850;9.002;2022-10-15T06:07:52;60.45;;;30.05;;
67965;SDS011;54749;47.850;9.002;2022-10-15T06:10:19;53.20;;;29.40;;
67965;SDS011;54749;47.850;9.002;2022-10-15T06:12:49;61.10;;;33.70;;
67965;SDS011;54749;47.850;9.002;2022-10-15T06:15:16;104.37;;;63.87;;
67965;SDS011;54749;47.850;9.002;2022-10-15T06:17:44;98.60;;;56.97;;
67965;SDS011;54749;47.850;9.002;2022-10-15T06:20:11;75.38;;;45.58;;
67965;SDS011;54749;47.850;9.002;2022-10-15T06:22:38;47.75;;;29.20;;
67965;SDS011;54749;47.850;9.002;2022-10-15T06:25:05;48.67;;;29.60;;
67965;SDS011;54749;47.850;9.002;2022-10-15T06:27:32;22.97;;;14.27;;
67965;SDS011;54749;47.850;9.002;2022-10-15T06:29:59;9.43;;;4.88;;
67965;SDS011;54749;47.850;9.002;2022-10-15T06:32:26;12.27;;;6.72;;
67965;SDS011;54749;47.850;9.002;2022-10-15T06:34:52;5.65;;;2.83;;
67965;SDS011;54749;47.850;9.002;2022-10-15T06:37:19;7.63;;;4.20;;
67965;SDS011;54749;47.850;9.002;2022-10-15T06:39:47;8.20;;;4.90;;
67965;SDS011;54749;47.850;9.002;2022-10-15T06:42:13;8.80;;;4.28;;
67965;SDS011;54749;47.850;9.002;2022-10-15T06:44:46;16.17;;;10.43;;
67965;SDS011;54749;47.850;9.002;2022-10-15T06:47:15;12.27;;;8.23;;
67965;SDS011;54749;47.850;9.002;2022-10-15T06:49:45;11.73;;;6.32;;
67965;SDS011;54749;47.850;9.002;2022-10-15T06:52:12;12.33;;;6.80;;
67965;SDS011;54749;47.850;9.002;2022-10-15T06:54:39;14.60;;;8.07;;
67965;SDS011;54749;47.850;9.002;2022-10-15T06:57:06;7.85;;;3.42;;
67965;SDS011;54749;47.850;9.002;2022-10-15T06:59:33;6.25;;;2.60;;
67965;SDS011;54749;47.850;9.002;2022-10-15T07:02:08;19.35;;;13.50;;
67965;SDS011;54749;47.850;9.002;2022-10-15T07:04:35;27.93;;;21.43;;
67965;SDS011;54749;47.850;9.002;2022-10-15T07:07:02;23.88;;;17.67;;
67965;SDS011;54749;47.850;9.002;2022-10-15T07:09:29;16.25;;;11.05;;
67965;SDS011;54749;47.850;9.002;2022-10-15T07:11:56;11.05;;;8.05;;
67965;SDS011;54749;47.850;9.002;2022-10-15T07:14:23;14.45;;;10.00;;
67965;SDS011;54749;47.850;9.002;2022-10-15T07:16:50;16.70;;;11.10;;
67965;SDS011;54749;47.850;9.002;2022-10-15T07:19:18;7.57;;;4.32;;
67965;SDS011;54749;47.850;9.002;2022-10-15T07:21:46;4.00;;;1.55;;
67965;SDS011;54749;47.850;9.002;2022-10-15T07:24:13;5.90;;;2.17;;
67965;SDS011;54749;47.850;9.002;2022-10-15T07:26:40;6.82;;;3.00;;
67965;SDS011;54749;47.850;9.002;2022-10-15T07:29:08;13.87;;;6.83;;
67965;SDS011;54749;47.850;9.002;2022-10-15T07:31:35;10.68;;;6.35;;
67965;SDS011;54749;47.850;9.002;2022-10-15T07:34:02;7.95;;;4.28;;
67965;SDS011;54749;47.850;9.002;2022-10-15T07:36:28;7.72;;;4.28;;
67965;SDS011;54749;47.850;9.002;2022-10-15T07:38:55;10.60;;;6.60;;
67965;SDS011;54749;47.850;9.002;2022-10-15T07:41:22;7.40;;;3.97;;
67965;SDS011;54749;47.850;9.002;2022-10-15T07:43:50;10.45;;;6.38;;
67965;SDS011;54749;47.850;9.002;2022-10-15T07:46:19;13.57;;;7.20;;
67965;SDS011;54749;47.850;9.002;2022-10-15T07:48:51;12.27;;;5.97;;
67965;SDS011;54749;47.850;9.002;2022-10-15T07:51:18;9.18;;;5.00;;
67965;SDS011;54749;47.850;9.002;2022-10-15T07:53:45;10.07;;;6.20;;
67965;SDS011;54749;47.850;9.002;2022-10-15T07:56:13;10.25;;;4.63;;
67965;SDS011;54749;47.850;9.002;2022-10-15T07:58:41;8.45;;;4.55;;
67965;SDS011;54749;47.850;9.002;2022-10-15T08:01:09;7.68;;;3.40;;
67965;SDS011;54749;47.850;9.002;2022-10-15T08:03:36;6.78;;;2.25;;
67965;SDS011;54749;47.850;9.002;2022-10-15T08:06:04;7.33;;;2.07;;
67965;SDS011;54749;47.850;9.002;2022-10-15T08:08:33;4.57;;;1.33;;
67965;SDS011;54749;47.850;9.002;2022-10-15T08:11:08;4.75;;;1.17;;
67965;SDS011;54749;47.850;9.002;2022-10-15T08:13:36;4.53;;;1.60;;
67965;SDS011;54749;47.850;9.002;2022-10-15T08:16:10;5.38;;;1.70;;
67965;SDS011;54749;47.850;9.002;2022-10-15T08:18:38;4.47;;;1.40;;
67965;SDS011;54749;47.850;9.002;2022-10-15T08:21:05;4.57;;;1.00;;
67965;SDS011;54749;47.850;9.002;2022-10-15T08:23:33;5.20;;;1.00;;
67965;SDS011;54749;47.850;9.002;2022-10-15T08:26:01;3.88;;;0.80;;
67965;SDS011;54749;47.850;9.002;2022-10-15T08:28:29;3.13;;;1.00;;
67965;SDS011;54749;47.850;9.002;2022-10-15T08:30:57;3.57;;;0.90;;
67965;SDS011;54749;47.850;9.002;2022-10-15T08:33:31;4.03;;;1.00;;
67965;SDS011;54749;47.850;9.002;2022-10-15T08:36:03;3.20;;;0.88;;
67965;SDS011;54749;47.850;9.002;2022-10-15T08:38:31;3.50;;;0.90;;
67965;SDS011;54749;47.850;9.002;2022-10-15T08:40:58;4.18;;;1.00;;
67965;SDS011;54749;47.850;9.002;2022-10-15T08:43:35;4.10;;;0.97;;
67965;SDS011;54749;47.850;9.002;2022-10-15T08:46:20;4.20;;;0.90;;
67965;SDS011;54749;47.850;9.002;2022-10-15T08:48:54;3.92;;;1.25;;
67965;SDS011;54749;47.850;9.002;2022-10-15T08:51:27;5.25;;;1.08;;
67965;SDS011;54749;47.850;9.002;2022-10-15T08:54:08;4.18;;;1.10;;
67965;SDS011;54749;47.850;9.002;2022-10-15T08:56:44;4.67;;;1.23;;
67965;SDS011;54749;47.850;9.002;2022-10-15T08:59:32;4.43;;;1.20;;
67965;SDS011;54749;47.850;9.002;2022-10-15T09:02:16;4.63;;;1.02;;
67965;SDS011;54749;47.850;9.002;2022-10-15T09:04:52;6.82;;;1.30;;
67965;SDS011;54749;47.850;9.002;2022-10-15T09:07:38;5.47;;;1.10;;
67965;SDS011;54749;47.850;9.002;2022-10-15T09:13:02;5.15;;;0.85;;
67965;SDS011;54749;47.850;9.002;2022-10-15T09:15:46;3.92;;;1.05;;
67965;SDS011;54749;47.850;9.002;2022-10-15T09:18:23;3.33;;;1.05;;
67965;SDS011;54749;47.850;9.002;2022-10-15T09:20:51;4.68;;;1.00;;
67965;SDS011;54749;47.850;9.002;2022-10-15T09:23:20;5.03;;;0.83;;
67965;SDS011;54749;47.850;9.002;2022-10-15T09:26:13;5.57;;;1.20;;
67965;SDS011;54749;47.850;9.002;2022-10-15T09:28:43;5.00;;;1.15;;
67965;SDS011;54749;47.850;9.002;2022-10-15T09:31:20;5.45;;;0.93;;
67965;SDS011;54749;47.850;9.002;2022-10-15T09:33:51;5.53;;;1.20;;
67965;SDS011;54749;47.850;9.002;2022-10-15T09:39:25;4.10;;;1.30;;
67965;SDS011;54749;47.850;9.002;2022-10-15T09:45:11;3.08;;;1.08;;
67965;SDS011;54749;47.850;9.002;2022-10-15T09:47:40;4.28;;;0.80;;
67965;SDS011;54749;47.850;9.002;2022-10-15T09:50:09;5.00;;;1.07;;
67965;SDS011;54749;47.850;9.002;2022-10-15T09:55:40;3.28;;;0.93;;
67965;SDS011;54749;47.850;9.002;2022-10-15T09:58:15;3.10;;;0.80;;
67965;SDS011;54749;47.850;9.002;2022-10-15T10:03:23;5.23;;;0.80;;
67965;SDS011;54749;47.850;9.002;2022-10-15T10:05:57;3.75;;;0.95;;
67965;SDS011;54749;47.850;9.002;2022-10-15T10:08:39;4.15;;;1.00;;
67965;SDS011;54749;47.850;9.002;2022-10-15T10:11:11;3.60;;;1.23;;
67965;SDS011;54749;47.850;9.002;2022-10-15T10:13:45;3.78;;;1.00;;
67965;SDS011;54749;47.850;9.002;2022-10-15T10:16:16;4.10;;;1.00;;
67965;SDS011;54749;47.850;9.002;2022-10-15T10:19:02;3.97;;;1.08;;
67965;SDS011;54749;47.850;9.002;2022-10-15T10:21:39;4.82;;;1.25;;
67965;SDS011;54749;47.850;9.002;2022-10-15T10:24:18;6.20;;;1.30;;
67965;SDS011;54749;47.850;9.002;2022-10-15T10:26:57;5.45;;;1.40;;
67965;SDS011;54749;47.850;9.002;2022-10-15T10:29:26;4.57;;;1.60;;
67965;SDS011;54749;47.850;9.002;2022-10-15T10:32:08;7.13;;;1.40;;
67965;SDS011;54749;47.850;9.002;2022-10-15T10:34:42;6.38;;;1.50;;
67965;SDS011;54749;47.850;9.002;2022-10-15T10:37:15;5.65;;;2.03;;
67965;SDS011;54749;47.850;9.002;2022-10-15T10:39:42;6.07;;;1.95;;
67965;SDS011;54749;47.850;9.002;2022-10-15T10:44:43;5.85;;;1.48;;
67965;SDS011;54749;47.850;9.002;2022-10-15T10:47:16;3.65;;;1.00;;
67965;SDS011;54749;47.850;9.002;2022-10-15T10:49:49;3.50;;;1.10;;
67965;SDS011;54749;47.850;9.002;2022-10-15T10:52:24;4.35;;;1.30;;
67965;SDS011;54749;47.850;9.002;2022-10-15T10:55:04;6.77;;;1.53;;
67965;SDS011;54749;47.850;9.002;2022-10-15T11:00:26;2.97;;;1.00;;
67965;SDS011;54749;47.850;9.002;2022-10-15T11:03:01;3.33;;;1.00;;
67965;SDS011;54749;47.850;9.002;2022-10-15T11:05:28;5.78;;;1.17;;
67965;SDS011;54749;47.850;9.002;2022-10-15T11:07:59;3.30;;;1.30;;
67965;SDS011;54749;47.850;9.002;2022-10-15T11:10:39;7.55;;;1.65;;
67965;SDS011;54749;47.850;9.002;2022-10-15T11:13:26;4.47;;;1.40;;
67965;SDS011;54749;47.850;9.002;2022-10-15T11:16:11;3.88;;;1.42;;
67965;SDS011;54749;47.850;9.002;2022-10-15T11:18:55;7.53;;;1.90;;
67965;SDS011;54749;47.850;9.002;2022-10-15T11:46:11;5.72;;;2.30;;
67965;SDS011;54749;47.850;9.002;2022-10-15T11:54:38;4.65;;;1.40;;
67965;SDS011;54749;47.850;9.002;2022-10-15T11:57:08;4.43;;;1.40;;
67965;SDS011;54749;47.850;9.002;2022-10-15T12:00:00;5.53;;;1.30;;
67965;SDS011;54749;47.850;9.002;2022-10-15T12:02:38;4.93;;;1.50;;
67965;SDS011;54749;47.850;9.002;2022-10-15T12:05:07;3.83;;;1.35;;
67965;SDS011;54749;47.850;9.002;2022-10-15T12:07:43;5.32;;;1.20;;
67965;SDS011;54749;47.850;9.002;2022-10-15T12:10:27;4.22;;;1.23;;
67965;SDS011;54749;47.850;9.002;2022-10-15T12:15:31;4.70;;;1.30;;
67965;SDS011;54749;47.850;9.002;2022-10-15T12:18:19;4.00;;;1.20;;
67965;SDS011;54749;47.850;9.002;2022-10-15T12:20:53;5.80;;;1.08;;
67965;SDS011;54749;47.850;9.002;2022-10-15T12:23:22;5.30;;;1.23;;
67965;SDS011;54749;47.850;9.002;2022-10-15T12:25:52;8.93;;;2.80;;
67965;SDS011;54749;47.850;9.002;2022-10-15T12:28:23;8.33;;;2.53;;
67965;SDS011;54749;47.850;9.002;2022-10-15T12:33:38;9.90;;;4.22;;
67965;SDS011;54749;47.850;9.002;2022-10-15T12:36:20;13.15;;;4.28;;
67965;SDS011;54749;47.850;9.002;2022-10-15T12:41:53;3.30;;;1.10;;
67965;SDS011;54749;47.850;9.002;2022-10-15T12:44:29;3.20;;;1.13;;
67965;SDS011;54749;47.850;9.002;2022-10-15T12:46:59;4.47;;;1.30;;
67965;SDS011;54749;47.850;9.002;2022-10-15T12:51:53;4.40;;;1.00;;
67965;SDS011;54749;47.850;9.002;2022-10-15T12:54:31;5.07;;;1.20;;
67965;SDS011;54749;47.850;9.002;2022-10-15T12:57:00;4.63;;;1.17;;
67965;SDS011;54749;47.850;9.002;2022-10-15T13:05:03;3.15;;;1.13;;
67965;SDS011;54749;47.850;9.002;2022-10-15T13:07:31;4.30;;;1.40;;
67965;SDS011;54749;47.850;9.002;2022-10-15T13:10:03;4.13;;;1.10;;
67965;SDS011;54749;47.850;9.002;2022-10-15T13:12:30;6.25;;;1.17;;
67965;SDS011;54749;47.850;9.002;2022-10-15T13:14:59;6.05;;;1.23;;
67965;SDS011;54749;47.850;9.002;2022-10-15T13:17:29;5.72;;;1.00;;
67965;SDS011;54749;47.850;9.002;2022-10-15T13:20:02;3.67;;;1.00;;
67965;SDS011;54749;47.850;9.002;2022-10-15T13:22:32;4.80;;;1.30;;
67965;SDS011;54749;47.850;9.002;2022-10-15T13:25:01;4.60;;;1.45;;
67965;SDS011;54749;47.850;9.002;2022-10-15T13:32:44;5.00;;;1.93;;
67965;SDS011;54749;47.850;9.002;2022-10-15T13:35:17;4.93;;;1.75;;
67965;SDS011;54749;47.850;9.002;2022-10-15T13:37:46;4.65;;;1.17;;
67965;SDS011;54749;47.850;9.002;2022-10-15T13:40:21;4.15;;;1.20;;
67965;SDS011;54749;47.850;9.002;2022-10-15T13:43:12;4.47;;;1.40;;
67965;SDS011;54749;47.850;9.002;2022-10-15T13:45:47;5.83;;;1.67;;
67965;SDS011;54749;47.850;9.002;2022-10-15T13:48:25;8.40;;;1.48;;
67965;SDS011;54749;47.850;9.002;2022-10-15T13:50:57;5.57;;;1.30;;
67965;SDS011;54749;47.850;9.002;2022-10-15T13:53:30;4.20;;;1.40;;
67965;SDS011;54749;47.850;9.002;2022-10-15T13:56:03;4.93;;;1.30;;
67965;SDS011;54749;47.850;9.002;2022-10-15T13:58:45;3.80;;;1.20;;
67965;SDS011;54749;47.850;9.002;2022-10-15T14:01:16;5.22;;;1.50;;
67965;SDS011;54749;47.850;9.002;2022-10-15T14:06:19;3.25;;;1.20;;
67965;SDS011;54749;47.850;9.002;2022-10-15T14:08:49;3.90;;;1.25;;
67965;SDS011;54749;47.850;9.002;2022-10-15T14:11:17;4.47;;;1.30;;
67965;SDS011;54749;47.850;9.002;2022-10-15T14:13:51;3.90;;;1.42;;
67965;SDS011;54749;47.850;9.002;2022-10-15T14:21:41;15.73;;;5.05;;
67965;SDS011;54749;47.850;9.002;2022-10-15T14:24:16;8.13;;;3.13;;
67965;SDS011;54749;47.850;9.002;2022-10-15T14:26:46;4.35;;;1.88;;
67965;SDS011;54749;47.850;9.002;2022-10-15T14:29:35;6.13;;;2.00;;
67965;SDS011;54749;47.850;9.002;2022-10-15T14:32:24;4.63;;;2.05;;
67965;SDS011;54749;47.850;9.002;2022-10-15T14:34:56;6.13;;;2.10;;
67965;SDS011;54749;47.850;9.002;2022-10-15T14:42:40;6.90;;;2.80;;
67965;SDS011;54749;47.850;9.002;2022-10-15T14:45:26;7.53;;;2.17;;
67965;SDS011;54749;47.850;9.002;2022-10-15T14:47:59;3.72;;;1.60;;
67965;SDS011;54749;47.850;9.002;2022-10-15T14:50:33;5.80;;;1.70;;
67965;SDS011;54749;47.850;9.002;2022-10-15T14:53:07;12.15;;;3.50;;
67965;SDS011;54749;47.850;9.002;2022-10-15T14:55:37;11.00;;;3.47;;
67965;SDS011;54749;47.850;9.002;2022-10-15T14:58:19;9.63;;;3.05;;
67965;SDS011;54749;47.850;9.002;2022-10-15T15:00:48;6.07;;;2.60;;
67965;SDS011;54749;47.850;9.002;2022-10-15T15:03:29;5.33;;;2.10;;
67965;SDS011;54749;47.850;9.002;2022-10-15T15:06:04;7.15;;;2.67;;
67965;SDS011;54749;47.850;9.002;2022-10-15T15:08:31;6.53;;;2.50;;
67965;SDS011;54749;47.850;9.002;2022-10-15T15:10:58;5.65;;;2.58;;
67965;SDS011;54749;47.850;9.002;2022-10-15T15:13:28;6.53;;;2.17;;
67965;SDS011;54749;47.850;9.002;2022-10-15T15:15:57;5.77;;;2.00;;
67965;SDS011;54749;47.850;9.002;2022-10-15T15:18:24;3.88;;;1.80;;
67965;SDS011;54749;47.850;9.002;2022-10-15T15:20:51;4.30;;;1.65;;
67965;SDS011;54749;47.850;9.002;2022-10-15T15:23:19;6.22;;;1.58;;
67965;SDS011;54749;47.850;9.002;2022-10-15T15:25:48;4.47;;;1.63;;
67965;SDS011;54749;47.850;9.002;2022-10-15T15:28:17;4.23;;;1.70;;
67965;SDS011;54749;47.850;9.002;2022-10-15T15:30:46;4.10;;;1.63;;
67965;SDS011;54749;47.850;9.002;2022-10-15T15:33:20;5.15;;;1.52;;
67965;SDS011;54749;47.850;9.002;2022-10-15T15:35:47;5.28;;;2.33;;
67965;SDS011;54749;47.850;9.002;2022-10-15T15:38:35;4.25;;;1.30;;
67965;SDS011;54749;47.850;9.002;2022-10-15T15:43:43;3.67;;;1.10;;
67965;SDS011;54749;47.850;9.002;2022-10-15T15:46:12;2.67;;;0.85;;
67965;SDS011;54749;47.850;9.002;2022-10-15T15:48:40;4.97;;;1.10;;
67965;SDS011;54749;47.850;9.002;2022-10-15T15:51:18;3.45;;;1.10;;
67965;SDS011;54749;47.850;9.002;2022-10-15T15:53:47;4.70;;;1.60;;
67965;SDS011;54749;47.850;9.002;2022-10-15T15:56:14;4.63;;;1.92;;
67965;SDS011;54749;47.850;9.002;2022-10-15T15:58:42;6.38;;;1.80;;
67965;SDS011;54749;47.850;9.002;2022-10-15T16:01:08;5.93;;;2.30;;
67965;SDS011;54749;47.850;9.002;2022-10-15T16:03:35;6.22;;;2.33;;
67965;SDS011;54749;47.850;9.002;2022-10-15T16:06:06;7.03;;;3.23;;
67965;SDS011;54749;47.850;9.002;2022-10-15T16:08:34;5.20;;;2.30;;
67965;SDS011;54749;47.850;9.002;2022-10-15T16:11:01;6.63;;;2.03;;
67965;SDS011;54749;47.850;9.002;2022-10-15T16:13:29;4.53;;;1.60;;
67965;SDS011;54749;47.850;9.002;2022-10-15T16:15:56;5.50;;;1.40;;
67965;SDS011;54749;47.850;9.002;2022-10-15T16:18:24;4.30;;;1.50;;
67965;SDS011;54749;47.850;9.002;2022-10-15T16:20:51;4.40;;;1.60;;
67965;SDS011;54749;47.850;9.002;2022-10-15T16:23:18;6.50;;;1.58;;
67965;SDS011;54749;47.850;9.002;2022-10-15T16:25:45;5.88;;;1.40;;
67965;SDS011;54749;47.850;9.002;2022-10-15T16:28:12;3.20;;;1.23;;
67965;SDS011;54749;47.850;9.002;2022-10-15T16:30:39;3.27;;;1.20;;
67965;SDS011;54749;47.850;9.002;2022-10-15T16:33:06;3.60;;;1.23;;
67965;SDS011;54749;47.850;9.002;2022-10-15T16:35:33;3.00;;;1.02;;
67965;SDS011;54749;47.850;9.002;2022-10-15T16:38:00;3.58;;;1.38;;
67965;SDS011;54749;47.850;9.002;2022-10-15T16:40:27;3.88;;;1.30;;
67965;SDS011;54749;47.850;9.002;2022-10-15T16:42:54;3.40;;;1.20;;
67965;SDS011;54749;47.850;9.002;2022-10-15T16:45:21;3.78;;;1.30;;
67965;SDS011;54749;47.850;9.002;2022-10-15T16:47:48;5.13;;;2.40;;
67965;SDS011;54749;47.850;9.002;2022-10-15T16:50:15;7.70;;;3.50;;
67965;SDS011;54749;47.850;9.002;2022-10-15T16:52:42;9.02;;;4.13;;